Time;durP1;ratioP1;P1;durP2;ratioP2;P2;SDS_P1;SDS_P2;PMS_P1;PMS_P2;Temp;Humidity;BMP_temperature;BMP_pressure;BME280_temperature;BME280_humidity;BME280_pressure;Samples;Min_cycle;Max_cycle;Signal;HPM_P1;HPM_P2
2024/04/26 00:01:42;;;;;;;34.90;22.50;;;;;;;4.25;79.72;99995.82;106364;1267;99346;-79
2024/04/26 00:04:27;;;;;;;38.50;22.50;;;;;;;4.18;79.85;99999.17;106622;1266;99893;-80
2024/04/26 00:07:12;;;;;;;31.10;20.50;;;;;;;4.11;79.89;99997.48;106390;1267;102856;-79
2024/04/26 00:09:57;;;;;;;31.50;21.70;;;;;;;4.05;79.80;100000.64;106462;1267;100291;-80
2024/04/26 00:12:44;;;;;;;29.50;20.00;;;;;;;3.99;79.49;100007.08;106193;1268;99321;-80
2024/04/26 00:15:29;;;;;;;32.10;20.00;;;;;;;3.91;79.39;100006.88;106331;1267;99374;-80
2024/04/26 00:18:14;;;;;;;37.10;22.40;;;;;;;3.84;79.45;100010.36;106335;1268;99854;-80
2024/04/26 00:21:00;;;;;;;35.00;22.10;;;;;;;3.80;79.54;100009.41;106299;1267;102740;-81
2024/04/26 00:23:46;;;;;;;33.80;22.60;;;;;;;3.79;79.93;100011.83;106353;1267;99907;-79
2024/04/26 00:26:31;;;;;;;36.60;22.90;;;;;;;3.78;80.30;100009.41;106367;1270;99358;-80
2024/04/26 00:29:17;;;;;;;36.80;23.50;;;;;;;3.80;80.48;100007.13;106377;1267;99320;-81
2024/04/26 00:32:03;;;;;;;37.10;22.90;;;;;;;3.80;81.01;100004.25;106075;1267;99826;-80
2024/04/26 00:34:49;;;;;;;38.10;23.60;;;;;;;3.81;80.94;100001.64;106356;1266;102709;-81
2024/04/26 00:37:37;;;;;;;33.90;22.60;;;;;;;3.80;80.83;100001.46;106581;1267;99255;-80
2024/04/26 00:40:22;;;;;;;34.80;21.90;;;;;;;3.76;81.13;100002.94;106375;1273;99391;-80
2024/04/26 00:43:08;;;;;;;36.10;23.00;;;;;;;3.70;80.96;100003.69;106298;1267;99327;-80
2024/04/26 00:45:54;;;;;;;32.90;21.40;;;;;;;3.65;80.74;100003.92;106422;1270;99049;-80
2024/04/26 00:48:39;;;;;;;37.40;24.20;;;;;;;3.61;80.68;100005.36;106427;1267;103395;-81
2024/04/26 00:51:26;;;;;;;32.50;22.10;;;;;;;3.59;80.68;100006.67;106363;1267;99254;-80
2024/04/26 00:54:13;;;;;;;32.90;21.50;;;;;;;3.56;80.69;100005.91;106353;1268;97813;-79
2024/04/26 00:57:00;;;;;;;35.00;21.40;;;;;;;3.52;80.68;100005.58;106364;1268;97867;-80
2024/04/26 00:59:48;;;;;;;33.00;20.70;;;;;;;3.47;80.46;100003.80;106355;1267;99784;-80
2024/04/26 01:02:36;;;;;;;30.40;19.40;;;;;;;3.43;80.32;100005.61;106359;1267;102777;-80
2024/04/26 01:05:21;;;;;;;31.00;18.90;;;;;;;3.40;80.45;100008.24;106417;1270;99763;-80
2024/04/26 01:08:07;;;;;;;34.00;20.20;;;;;;;3.38;80.48;100010.08;106270;1266;99272;-82
2024/04/26 01:10:52;;;;;;;29.70;19.00;;;;;;;3.36;80.56;100009.40;106250;1266;97147;-80
2024/04/26 01:13:38;;;;;;;33.00;20.70;;;;;;;3.31;80.67;100008.80;106259;1270;99803;-80
2024/04/26 01:16:23;;;;;;;31.20;19.80;;;;;;;3.30;80.85;100010.36;106403;1270;102706;-79
2024/04/26 01:19:13;;;;;;;34.30;20.70;;;;;;;3.29;81.22;100011.85;106333;1267;99864;-81
2024/04/26 01:22:25;;;;;;;31.20;21.40;;;;;;;3.28;81.16;100016.58;106091;1270;99368;-78
2024/04/26 01:25:12;;;;;;;31.70;21.40;;;;;;;3.26;81.03;100017.11;105940;1273;99829;-79
2024/04/26 01:27:57;;;;;;;36.00;22.30;;;;;;;3.26;81.11;100019.09;105931;1269;99809;-79
2024/04/26 01:30:42;;;;;;;35.50;23.70;;;;;;;3.24;80.96;100020.87;105781;1268;102761;-80
2024/04/26 01:33:28;;;;;;;35.70;22.30;;;;;;;3.20;80.66;100020.90;105749;1273;99830;-79
2024/04/26 01:36:13;;;;;;;35.10;21.30;;;;;;;3.14;80.82;100021.52;105804;1267;99348;-79
2024/04/26 01:38:58;;;;;;;37.50;21.40;;;;;;;3.10;80.97;100025.62;105820;1270;99347;-79
2024/04/26 01:41:44;;;;;;;31.70;21.20;;;;;;;3.07;81.09;100025.51;105617;1268;99788;-79
2024/04/26 01:44:30;;;;;;;32.80;20.60;;;;;;;3.05;81.15;100029.61;105759;1270;104114;-80
2024/04/26 01:47:15;;;;;;;32.70;21.10;;;;;;;3.02;81.17;100032.88;105719;1268;99157;-79
2024/04/26 01:50:01;;;;;;;34.70;20.30;;;;;;;3.02;81.47;100040.01;105897;1270;99462;-80
2024/04/26 01:52:49;;;;;;;33.30;19.70;;;;;;;3.00;81.95;100037.89;105822;1267;99351;-78
2024/04/26 01:55:34;;;;;;;30.10;19.80;;;;;;;3.00;82.45;100037.31;105247;1273;99758;-78
2024/04/26 01:58:19;;;;;;;35.90;20.40;;;;;;;3.01;82.96;100042.23;105190;1267;102748;-78
2024/04/26 02:01:05;;;;;;;34.50;20.10;;;;;;;3.00;83.19;100040.34;104774;1270;99852;-77
2024/04/26 02:03:51;;;;;;;32.40;19.40;;;;;;;3.01;83.12;100044.35;104783;1270;100493;-77
2024/04/26 02:06:37;;;;;;;35.90;21.30;;;;;;;3.01;83.13;100039.05;105319;1270;99384;-78
2024/04/26 02:09:22;;;;;;;32.40;20.40;;;;;;;3.01;83.06;100040.60;105405;1270;99816;-77
2024/04/26 02:12:08;;;;;;;30.90;20.50;;;;;;;3.01;83.06;100042.21;105318;1270;102744;-79
2024/04/26 02:14:53;;;;;;;29.40;19.60;;;;;;;3.00;82.86;100043.53;105403;1268;100991;-79
2024/04/26 02:17:39;;;;;;;33.90;20.30;;;;;;;2.97;82.75;100046.25;105268;1270;99689;-79
2024/04/26 02:20:24;;;;;;;27.70;18.90;;;;;;;2.95;82.69;100049.83;105547;1270;99438;-78
2024/04/26 02:23:10;;;;;;;30.60;20.10;;;;;;;2.93;82.82;100057.45;105361;1267;99918;-78
2024/04/26 02:25:55;;;;;;;29.60;19.50;;;;;;;2.92;82.81;100058.66;105277;1270;104298;-79
2024/04/26 02:28:41;;;;;;;31.10;20.30;;;;;;;2.90;82.65;100058.11;105328;1272;99942;-79
2024/04/26 02:31:26;;;;;;;30.10;19.00;;;;;;;2.88;82.75;100062.72;105247;1270;99460;-78
2024/04/26 02:34:11;;;;;;;29.60;18.50;;;;;;;2.87;82.75;100064.23;105163;1270;99231;-79
2024/04/26 02:36:57;;;;;;;29.40;18.90;;;;;;;2.86;83.18;100067.66;105315;1267;99256;-79
2024/04/26 02:39:42;;;;;;;29.10;18.20;;;;;;;2.85;83.22;100068.88;105282;1273;102866;-79
2024/04/26 02:42:28;;;;;;;30.80;19.60;;;;;;;2.85;83.26;100066.79;105721;1267;99219;-80
2024/04/26 02:45:13;;;;;;;31.80;19.90;;;;;;;2.84;83.20;100069.49;105810;1267;99394;-79
2024/04/26 02:47:59;;;;;;;33.40;19.50;;;;;;;2.84;83.24;100071.91;105576;1267;99336;-78
2024/04/26 02:50:44;;;;;;;32.10;20.70;;;;;;;2.84;83.12;100074.61;105249;1267;99771;-78
2024/04/26 02:53:30;;;;;;;32.10;20.00;;;;;;;2.82;82.95;100078.30;105062;1272;102737;-77
2024/04/26 02:56:15;;;;;;;34.90;21.50;;;;;;;2.79;82.70;100080.78;105001;1272;100484;-79
2024/04/26 02:59:03;;;;;;;34.80;21.30;;;;;;;2.75;82.62;100079.78;104856;1266;99359;-77
2024/04/26 03:01:49;;;;;;;34.70;22.10;;;;;;;2.69;82.40;100081.70;105358;1267;99361;-80
2024/04/26 03:04:34;;;;;;;37.90;22.40;;;;;;;2.65;82.36;100085.66;105437;1266;99779;-78
2024/04/26 03:07:19;;;;;;;36.50;22.70;;;;;;;2.60;82.11;100089.66;105012;1270;102848;-78
2024/04/26 03:10:05;;;;;;;38.80;23.60;;;;;;;2.53;82.08;100095.41;105350;1267;99270;-79
2024/04/26 03:12:50;;;;;;;36.00;21.40;;;;;;;2.47;81.96;100094.27;105537;1270;98431;-79
2024/04/26 03:15:36;;;;;;;35.80;22.30;;;;;;;2.41;82.13;100096.61;105526;1267;99317;-79
2024/04/26 03:18:21;;;;;;;35.60;21.80;;;;;;;2.38;82.49;100098.55;105608;1270;99928;-79
2024/04/26 03:21:07;;;;;;;39.80;23.50;;;;;;;2.37;82.57;100096.70;105495;1267;102704;-78
2024/04/26 03:23:54;;;;;;;39.40;24.70;;;;;;;2.37;82.61;100098.80;105725;1270;99242;-79
2024/04/26 03:26:39;;;;;;;40.10;24.90;;;;;;;2.35;82.42;100099.88;105963;1267;99345;-80
2024/04/26 03:29:25;;;;;;;38.80;24.80;;;;;;;2.33;82.78;100102.80;106177;1273;99378;-80
2024/04/26 03:32:10;;;;;;;39.30;24.40;;;;;;;2.32;83.09;100106.98;106172;1268;99243;-79
2024/04/26 03:34:55;;;;;;;39.80;24.30;;;;;;;2.30;83.38;100105.77;105987;1268;103945;-80
2024/04/26 03:37:41;;;;;;;43.50;23.40;;;;;;;2.29;83.59;100112.44;106230;1270;99873;-79
2024/04/26 03:40:26;;;;;;;38.50;23.30;;;;;;;2.27;83.61;100112.40;106100;1267;99230;-78
2024/04/26 03:43:16;;;;;;;37.60;22.00;;;;;;;2.26;83.72;100113.02;106388;1267;99349;-79
2024/04/26 03:46:02;;;;;;;38.40;21.60;;;;;;;2.25;83.68;100112.99;106162;1266;99158;-79
2024/04/26 03:48:47;;;;;;;35.20;22.70;;;;;;;2.23;83.71;100113.31;105672;1272;104096;-79
2024/04/26 03:51:33;;;;;;;32.50;21.40;;;;;;;2.22;83.92;100112.67;105840;1270;99926;-80
2024/04/26 03:54:18;;;;;;;33.00;20.40;;;;;;;2.22;84.17;100115.20;105949;1267;99330;-79
2024/04/26 03:57:04;;;;;;;31.50;21.10;;;;;;;2.21;84.38;100112.59;105842;1268;99881;-79
2024/04/26 03:59:49;;;;;;;32.60;20.80;;;;;;;2.21;84.33;100111.63;105838;1268;99971;-79
2024/04/26 04:02:35;;;;;;;31.50;20.40;;;;;;;2.20;84.41;100111.87;105436;1268;102809;-80
2024/04/26 04:05:20;;;;;;;37.60;21.50;;;;;;;2.21;84.61;100115.42;105353;1270;100543;-78
2024/04/26 04:08:07;;;;;;;32.60;20.00;;;;;;;2.22;84.96;100116.95;105426;1268;100829;-80
2024/04/26 04:10:52;;;;;;;32.80;19.30;;;;;;;2.23;85.20;100119.15;105624;1274;99349;-77
2024/04/26 04:13:38;;;;;;;33.50;20.30;;;;;;;2.24;85.49;100125.38;104840;1270;99833;-80
2024/04/26 04:16:24;;;;;;;31.80;20.70;;;;;;;2.27;86.22;100131.65;104845;1267;102766;-80
2024/04/26 04:19:09;;;;;;;28.80;18.10;;;;;;;2.31;86.65;100132.13;105154;1281;99470;-78
2024/04/26 04:21:54;;;;;;;26.80;18.70;;;;;;;2.36;87.05;100130.21;105161;1271;99298;-78
2024/04/26 04:24:40;;;;;;;29.40;17.80;;;;;;;2.42;87.26;100133.16;105376;1271;99360;-78
2024/04/26 04:27:25;;;;;;;29.40;17.90;;;;;;;2.48;87.58;100131.38;105364;1267;99531;-79
2024/04/26 04:30:11;;;;;;;24.90;17.10;;;;;;;2.52;87.82;100124.44;105658;1271;102706;-79
2024/04/26 04:32:57;;;;;;;32.90;20.80;;;;;;;2.57;88.24;100129.45;105574;1268;99875;-78
2024/04/26 04:35:43;;;;;;;29.20;18.50;;;;;;;2.63;88.66;100134.34;105382;1267;99354;-79
2024/04/26 04:38:28;;;;;;;36.10;21.60;;;;;;;2.71;88.87;100137.98;105432;1270;99476;-78
2024/04/26 04:41:13;;;;;;;39.60;22.50;;;;;;;2.78;89.56;100133.70;105506;1274;99874;-79
2024/04/26 04:43:59;;;;;;;38.30;22.80;;;;;;;2.86;90.06;100132.38;105304;1271;103613;-79
2024/04/26 04:46:45;;;;;;;32.80;21.00;;;;;;;2.94;90.24;100133.55;105443;1270;100395;-79
2024/04/26 04:49:30;;;;;;;32.30;20.80;;;;;;;3.02;90.50;100134.89;105447;1270;99386;-78
2024/04/26 04:52:16;;;;;;;35.60;20.30;;;;;;;3.08;90.74;100135.11;106180;1270;99327;-77
2024/04/26 04:55:01;;;;;;;30.80;17.90;;;;;;;3.15;90.90;100133.75;105727;1272;99390;-79
2024/04/26 04:57:46;;;;;;;31.60;20.00;;;;;;;3.20;91.36;100136.45;105786;1267;103727;-80
2024/04/26 05:00:32;;;;;;;32.40;20.60;;;;;;;3.27;91.80;100138.42;106279;1267;100386;-80
2024/04/26 05:03:18;;;;;;;32.60;20.30;;;;;;;3.35;92.04;100140.40;106311;1270;99320;-80
2024/04/26 05:06:04;;;;;;;31.60;19.40;;;;;;;3.44;92.62;100141.23;106126;1267;99261;-80
2024/04/26 05:08:50;;;;;;;28.90;18.80;;;;;;;3.54;93.10;100146.39;106290;1267;99390;-80
2024/04/26 05:11:35;;;;;;;34.40;18.30;;;;;;;3.63;93.41;100147.08;106189;1270;102728;-80
2024/04/26 05:14:21;;;;;;;30.50;18.20;;;;;;;3.72;93.46;100147.95;106265;1271;99464;-79
2024/04/26 05:17:07;;;;;;;29.00;17.80;;;;;;;3.81;93.63;100151.05;106305;1272;98998;-80
2024/04/26 05:19:52;;;;;;;33.00;20.00;;;;;;;3.92;93.92;100155.45;106273;1282;99281;-80
2024/04/26 05:22:37;;;;;;;31.50;18.40;;;;;;;4.02;95.07;100158.88;106357;1267;99864;-80
2024/04/26 05:25:23;;;;;;;32.90;20.10;;;;;;;4.12;95.05;100166.48;106342;1267;104346;-80
2024/04/26 05:28:10;;;;;;;31.90;19.30;;;;;;;4.21;95.30;100169.45;106288;1267;99322;-80
2024/04/26 05:30:55;;;;;;;28.70;18.00;;;;;;;4.31;95.66;100170.48;106087;1272;99453;-78
2024/04/26 05:33:41;;;;;;;28.20;18.80;;;;;;;4.43;95.88;100173.87;105813;1270;99365;-79
2024/04/26 05:36:26;;;;;;;28.90;18.20;;;;;;;4.55;96.36;100175.27;105842;1270;101186;-79
2024/04/26 05:39:11;;;;;;;23.70;16.30;;;;;;;4.69;96.67;100174.68;105450;1273;102791;-78
2024/04/26 05:41:57;;;;;;;22.50;14.50;;;;;;;4.83;96.69;100175.91;105198;1281;99350;-78
2024/04/26 05:44:43;;;;;;;24.80;16.20;;;;;;;4.96;96.80;100181.33;105468;1271;99342;-78
2024/04/26 05:47:46;;;;;;;27.60;15.30;;;;;;;5.11;96.96;100180.41;105386;1267;99297;-79
2024/04/26 05:50:31;;;;;;;25.20;15.30;;;;;;;5.25;96.95;100182.07;105651;1267;99782;-80
2024/04/26 05:53:16;;;;;;;21.10;14.30;;;;;;;5.40;97.10;100180.66;105773;1267;102785;-77
2024/04/26 05:56:01;;;;;;;20.40;13.90;;;;;;;5.56;96.86;100184.40;104700;1275;100129;-78
2024/04/26 05:58:47;;;;;;;21.50;13.30;;;;;;;5.72;96.96;100185.05;104902;1273;99403;-77
2024/04/26 06:01:34;;;;;;;21.70;13.50;;;;;;;5.85;96.54;100184.88;105374;1270;99385;-79
2024/04/26 06:04:20;;;;;;;20.20;13.70;;;;;;;5.98;96.44;100192.08;105841;1267;99157;-79
2024/04/26 06:07:06;;;;;;;19.20;12.60;;;;;;;6.13;96.28;100191.16;105836;1273;103989;-80
2024/04/26 06:09:51;;;;;;;18.60;12.50;;;;;;;6.25;95.90;100191.71;105934;1267;99353;-79
2024/04/26 06:12:40;;;;;;;20.10;12.30;;;;;;;6.39;95.72;100193.35;105984;1270;98529;-80
2024/04/26 06:15:25;;;;;;;17.20;11.40;;;;;;;6.53;95.40;100196.41;105861;1267;99710;-80
2024/04/26 06:18:11;;;;;;;18.70;11.90;;;;;;;6.67;95.37;100197.70;106703;1267;98430;-80
2024/04/26 06:20:56;;;;;;;18.20;12.30;;;;;;;6.81;95.03;100204.08;105816;1267;102709;-79
2024/04/26 06:23:44;;;;;;;22.30;12.10;;;;;;;6.95;94.47;100202.83;105779;1270;100364;-80
2024/04/26 06:26:32;;;;;;;18.20;10.90;;;;;;;7.09;94.20;100207.83;105843;1270;99225;-79
2024/04/26 06:29:18;;;;;;;17.90;11.10;;;;;;;7.22;94.11;100215.67;106158;1267;99433;-79
2024/04/26 06:32:05;;;;;;;15.30;11.00;;;;;;;7.35;93.98;100210.08;106295;1267;99128;-80
2024/04/26 06:34:50;;;;;;;17.40;10.00;;;;;;;7.48;93.52;100213.56;106231;1267;102745;-80
2024/04/26 06:37:35;;;;;;;16.40;10.20;;;;;;;7.62;93.43;100211.90;106201;1270;99211;-79
2024/04/26 06:40:21;;;;;;;14.90;10.20;;;;;;;7.75;92.75;100220.48;105563;1272;98541;-79
2024/04/26 06:43:07;;;;;;;16.90;9.90;;;;;;;7.86;92.44;100216.36;105798;1267;99370;-79
2024/04/26 06:45:52;;;;;;;13.80;9.30;;;;;;;7.97;91.85;100218.47;105831;1267;99371;-78
2024/04/26 06:48:38;;;;;;;17.20;11.30;;;;;;;8.05;91.26;100212.09;105749;1270;102729;-78
2024/04/26 06:51:24;;;;;;;15.60;10.60;;;;;;;8.14;90.82;100211.61;105259;1270;99333;-78
2024/04/26 06:54:09;;;;;;;16.80;10.00;;;;;;;8.24;90.81;100213.89;105312;1270;99350;-79
2024/04/26 06:56:55;;;;;;;16.50;9.50;;;;;;;8.35;90.47;100215.23;105208;1270;99342;-78
2024/04/26 06:59:40;;;;;;;13.30;8.50;;;;;;;8.44;89.60;100217.30;106324;1267;99228;-79
2024/04/26 07:02:25;;;;;;;13.10;8.40;;;;;;;8.51;88.90;100219.76;105747;1270;102659;-79
2024/04/26 07:05:11;;;;;;;14.70;8.50;;;;;;;8.59;88.11;100220.69;105771;1267;100605;-80
2024/04/26 07:07:57;;;;;;;16.10;9.90;;;;;;;8.68;88.23;100219.23;105677;1267;99256;-80
2024/04/26 07:10:44;;;;;;;12.90;8.90;;;;;;;8.78;87.96;100217.96;106186;1270;97380;-80
2024/04/26 07:13:30;;;;;;;13.10;8.50;;;;;;;8.89;87.50;100218.48;106275;1273;101031;-80
2024/04/26 07:16:15;;;;;;;13.40;8.60;;;;;;;8.99;86.95;100223.46;106298;1267;103917;-80
2024/04/26 07:19:02;;;;;;;15.00;8.30;;;;;;;9.08;86.52;100226.40;106292;1267;100384;-81
2024/04/26 07:21:47;;;;;;;12.00;7.00;;;;;;;9.17;86.16;100226.52;106249;1267;99269;-80
2024/04/26 07:24:33;;;;;;;9.00;7.20;;;;;;;9.28;85.74;100225.17;106482;1267;99352;-81
2024/04/26 07:27:18;;;;;;;13.00;8.20;;;;;;;9.39;85.29;100221.66;106269;1270;100611;-80
2024/04/26 07:30:04;;;;;;;13.30;9.20;;;;;;;9.50;84.97;100222.98;106249;1267;103970;-81
2024/04/26 07:32:49;;;;;;;10.30;8.30;;;;;;;9.60;85.30;100224.75;106287;1267;99355;-80
2024/04/26 07:35:35;;;;;;;12.10;6.50;;;;;;;9.70;84.55;100225.80;106150;1267;99228;-80
2024/04/26 07:38:20;;;;;;;10.10;6.40;;;;;;;9.79;83.38;100224.53;106156;1267;169160;-80
2024/04/26 07:41:06;;;;;;;10.80;6.50;;;;;;;9.89;83.01;100226.64;106260;1266;99842;-80
2024/04/26 07:43:52;;;;;;;10.40;6.00;;;;;;;9.98;82.67;100229.41;106337;1266;103580;-80
2024/04/26 07:46:38;;;;;;;8.20;5.70;;;;;;;10.06;81.82;100230.91;106343;1266;99263;-81
2024/04/26 07:49:27;;;;;;;8.50;6.20;;;;;;;10.16;81.36;100233.26;106277;1270;97736;-80
2024/04/26 07:52:13;;;;;;;7.60;5.00;;;;;;;10.27;80.90;100229.68;106366;1267;99281;-81
2024/04/26 07:54:58;;;;;;;8.70;5.80;;;;;;;10.38;80.76;100230.06;106297;1267;99333;-81
2024/04/26 07:57:43;;;;;;;7.60;5.70;;;;;;;10.50;81.06;100233.63;106249;1267;102774;-80
2024/04/26 08:00:29;;;;;;;8.30;5.20;;;;;;;10.62;79.76;100233.21;106194;1267;99220;-81
2024/04/26 08:03:14;;;;;;;6.70;4.50;;;;;;;10.73;78.76;100236.29;106332;1267;106551;-80
2024/04/26 08:06:00;;;;;;;6.50;5.10;;;;;;;10.82;77.80;100235.03;106405;1270;98328;-80
2024/04/26 08:08:48;;;;;;;6.30;4.40;;;;;;;10.94;77.30;100236.09;106243;1270;99469;-80
2024/04/26 08:11:34;;;;;;;6.60;4.60;;;;;;;11.04;76.93;100238.98;106555;1267;104370;-80
2024/04/26 08:14:20;;;;;;;5.60;4.30;;;;;;;11.16;76.51;100241.68;106593;1267;100389;-80
2024/04/26 08:17:05;;;;;;;6.20;3.80;;;;;;;11.27;75.52;100240.63;106454;1267;99393;-81
2024/04/26 08:19:50;;;;;;;5.30;3.00;;;;;;;11.37;74.12;100243.38;106356;1267;99273;-80
2024/04/26 08:22:36;;;;;;;4.20;2.90;;;;;;;11.45;73.43;100244.03;105887;1267;97881;-80
2024/04/26 08:25:21;;;;;;;5.00;4.00;;;;;;;11.54;72.42;100242.83;106462;1267;104122;-80
2024/04/26 08:28:08;;;;;;;6.40;3.80;;;;;;;11.62;72.22;100243.02;105401;1270;99172;-78
2024/04/26 08:30:54;;;;;;;5.30;3.30;;;;;;;11.73;72.23;100238.86;105395;1273;99288;-79
2024/04/26 08:33:40;;;;;;;5.90;3.20;;;;;;;11.83;72.13;100237.15;106215;1272;99458;-80
2024/04/26 08:36:25;;;;;;;4.80;3.50;;;;;;;11.91;70.64;100234.94;106388;1270;99869;-79
2024/04/26 08:39:11;;;;;;;6.70;3.70;;;;;;;11.96;69.95;100229.88;105841;1266;103434;-80
2024/04/26 08:41:58;;;;;;;5.00;3.70;;;;;;;12.03;70.23;100228.86;105975;1266;99488;-79
2024/04/26 08:44:44;;;;;;;6.40;4.00;;;;;;;12.15;70.35;100230.39;105518;1272;99448;-79
2024/04/26 08:47:31;;;;;;;6.80;3.90;;;;;;;12.29;70.36;100227.21;105455;1270;97886;-78
2024/04/26 08:50:19;;;;;;;5.60;4.20;;;;;;;12.41;69.46;100229.20;105479;1267;100833;-79
2024/04/26 08:53:07;;;;;;;5.30;3.60;;;;;;;12.53;69.04;100226.61;105911;1267;102718;-79
2024/04/26 08:55:52;;;;;;;5.20;4.00;;;;;;;12.65;68.46;100226.81;105511;1266;99270;-79
2024/04/26 08:58:38;;;;;;;5.20;3.70;;;;;;;12.72;67.99;100227.51;105400;1270;99478;-79
2024/04/26 09:01:23;;;;;;;4.70;3.50;;;;;;;12.68;66.91;100227.89;105394;1270;99386;-79
2024/04/26 09:04:08;;;;;;;4.10;3.30;;;;;;;12.71;67.32;100227.06;105547;1270;99461;-78
2024/04/26 09:06:54;;;;;;;7.50;3.60;;;;;;;12.78;66.18;100225.47;105442;1267;103800;-79
2024/04/26 09:09:39;;;;;;;4.50;3.40;;;;;;;12.84;65.87;100223.05;104845;1267;100083;-78
2024/04/26 09:12:25;;;;;;;4.20;3.10;;;;;;;12.91;65.03;100222.09;105119;1267;99260;-78
2024/04/26 09:15:11;;;;;;;7.00;3.80;;;;;;;12.98;64.09;100219.13;105392;1267;99335;-79
2024/04/26 09:17:56;;;;;;;5.90;3.30;;;;;;;12.99;63.57;100219.19;105495;1267;99273;-80
2024/04/26 09:20:42;;;;;;;5.20;2.80;;;;;;;12.99;62.83;100218.44;105500;1267;103497;-79
2024/04/26 09:23:28;;;;;;;5.70;3.10;;;;;;;12.98;62.10;100217.52;105613;1267;99319;-80
2024/04/26 09:26:14;;;;;;;3.80;3.30;;;;;;;12.97;62.56;100216.03;105599;1270;99618;-80
2024/04/26 09:29:00;;;;;;;5.60;3.60;;;;;;;12.99;62.39;100213.27;105568;1270;99250;-79
2024/04/26 09:31:45;;;;;;;6.60;3.50;;;;;;;13.06;62.40;100211.85;105588;1272;99361;-79
2024/04/26 09:34:34;;;;;;;3.60;3.20;;;;;;;13.18;62.88;100211.85;105465;1270;103998;-79
2024/04/26 09:37:20;;;;;;;6.60;4.70;;;;;;;13.24;61.73;100217.63;105498;1266;99837;-80
2024/04/26 09:40:07;;;;;;;3.90;3.20;;;;;;;13.23;61.59;100212.13;105855;1267;99369;-81
2024/04/26 09:42:54;;;;;;;5.70;3.40;;;;;;;13.24;61.71;100209.80;106432;1266;99132;-81
2024/04/26 09:45:41;;;;;;;4.50;3.40;;;;;;;13.24;61.28;100207.82;106363;1267;97912;-81
2024/04/26 09:48:27;;;;;;;4.60;3.00;;;;;;;13.25;61.13;100212.09;106481;1272;102774;-81
2024/04/26 09:51:15;;;;;;;3.80;3.20;;;;;;;13.30;60.80;100208.38;106586;1267;99276;-81
2024/04/26 09:54:01;;;;;;;5.00;3.30;;;;;;;13.45;60.95;100208.96;106367;1267;99288;-80
2024/04/26 09:56:46;;;;;;;6.80;3.30;;;;;;;13.64;61.11;100208.69;106320;1267;99335;-81
2024/04/26 09:59:32;;;;;;;4.60;3.60;;;;;;;13.77;60.45;100206.29;105916;1267;97866;-81
2024/04/26 10:02:20;;;;;;;8.80;3.60;;;;;;;13.87;59.44;100206.64;106350;1267;102730;-81
2024/04/26 10:05:19;;;;;;;6.00;4.10;;;;;;;13.98;59.13;100206.69;106283;1267;99260;-80
2024/04/26 10:08:06;;;;;;;5.30;3.50;;;;;;;14.00;58.51;100204.85;106372;1267;99341;-81
2024/04/26 10:10:51;;;;;;;6.50;4.60;;;;;;;14.11;59.28;100199.71;106376;1270;99269;-82
2024/04/26 10:13:44;;;;;;;5.50;4.40;;;;;;;14.28;59.52;100196.91;106360;1270;99362;-81
2024/04/26 10:16:37;;;;;;;6.70;3.60;;;;;;;14.45;58.77;100193.86;106335;1267;102739;-82
2024/04/26 10:19:22;;;;;;;6.90;4.00;;;;;;;14.56;58.06;100194.21;106193;1267;99340;-81
2024/04/26 10:22:09;;;;;;;5.30;3.30;;;;;;;14.59;57.47;100199.61;106351;1267;99392;-81
2024/04/26 10:24:54;;;;;;;5.40;3.50;;;;;;;14.53;55.89;100201.61;106393;1267;99347;-82
2024/04/26 10:27:42;;;;;;;5.10;3.00;;;;;;;14.50;56.03;100202.92;106205;1267;99125;-79
2024/04/26 10:30:29;;;;;;;5.10;3.20;;;;;;;14.55;55.51;100202.64;106141;1267;103984;-81
2024/04/26 10:33:16;;;;;;;3.80;2.70;;;;;;;14.64;55.73;100198.89;106181;1267;99343;-81
2024/04/26 10:36:05;;;;;;;6.20;3.70;;;;;;;14.76;55.11;100191.23;106326;1270;99132;-81
2024/04/26 10:38:50;;;;;;;4.00;3.40;;;;;;;14.87;54.74;100190.20;106037;1267;99406;-80
2024/04/26 10:41:37;;;;;;;5.40;3.20;;;;;;;15.01;55.18;100191.83;106146;1267;99403;-80
2024/04/26 10:44:25;;;;;;;6.30;3.40;;;;;;;15.16;54.52;100198.45;106282;1270;104400;-80
2024/04/26 10:47:11;;;;;;;6.80;2.90;;;;;;;15.13;52.67;100194.00;106608;1267;99278;-80
2024/04/26 10:49:56;;;;;;;7.00;3.60;;;;;;;15.02;52.77;100193.42;106267;1267;99237;-81
2024/04/26 10:52:42;;;;;;;5.40;3.00;;;;;;;15.01;52.95;100195.63;106234;1267;99526;-80
2024/04/26 10:55:27;;;;;;;4.20;2.70;;;;;;;15.07;52.32;100192.73;106275;1267;99469;-80
2024/04/26 10:58:13;;;;;;;4.90;3.60;;;;;;;15.06;51.70;100188.52;106114;1267;102763;-80
2024/04/26 11:00:58;;;;;;;5.70;3.00;;;;;;;15.16;52.91;100185.71;106095;1267;99943;-80
2024/04/26 11:03:52;;;;;;;3.70;2.50;;;;;;;15.28;52.64;100188.23;106071;1267;99284;-79
2024/04/26 11:06:37;;;;;;;3.10;2.30;;;;;;;15.29;50.88;100189.33;105321;1266;99345;-79
2024/04/26 11:09:22;;;;;;;4.70;2.40;;;;;;;15.23;50.02;100190.67;106196;1267;97821;-79
2024/04/26 11:12:08;;;;;;;6.20;2.90;;;;;;;15.18;49.76;100190.86;106230;1270;105258;-80
2024/04/26 11:14:54;;;;;;;5.90;2.90;;;;;;;15.14;50.25;100189.66;106128;1267;99435;-79
2024/04/26 11:17:40;;;;;;;3.70;2.90;;;;;;;15.16;50.24;100191.23;105932;1270;99077;-81
2024/04/26 11:20:25;;;;;;;4.40;2.00;;;;;;;15.14;49.54;100192.05;105928;1267;99480;-81
2024/04/26 11:23:11;;;;;;;5.30;2.40;;;;;;;15.12;49.49;100194.02;105763;1266;101003;-85
2024/04/26 11:25:57;;;;;;;3.40;2.10;;;;;;;15.11;49.80;100193.23;105446;1270;102736;-80
2024/04/26 11:28:43;;;;;;;3.20;2.40;;;;;;;15.04;48.92;100191.09;105716;1267;100025;-82
2024/04/26 11:31:29;;;;;;;3.00;2.40;;;;;;;14.95;48.43;100193.48;105761;1267;99396;-81
2024/04/26 11:34:15;;;;;;;7.60;3.50;;;;;;;14.85;48.75;100198.06;105740;1270;99400;-81
2024/04/26 11:37:04;;;;;;;4.40;2.60;;;;;;;14.77;48.67;100199.77;105768;1267;99819;-81
2024/04/26 11:39:50;;;;;;;4.20;3.00;;;;;;;14.68;48.14;100202.17;105790;1267;103995;-80
2024/04/26 11:42:36;;;;;;;5.10;3.30;;;;;;;14.62;48.83;100203.31;105724;1267;100007;-82
2024/04/26 11:45:21;;;;;;;3.90;2.90;;;;;;;14.64;49.13;100202.38;105922;1267;99336;-81
2024/04/26 11:48:06;;;;;;;5.80;3.40;;;;;;;14.76;49.55;100201.52;105792;1267;99339;-80
2024/04/26 11:50:52;;;;;;;4.30;2.70;;;;;;;14.90;49.50;100199.91;105852;1267;99856;-81
2024/04/26 11:53:37;;;;;;;4.40;2.90;;;;;;;15.07;49.65;100200.59;105649;1266;102739;-81
2024/04/26 11:56:24;;;;;;;5.10;2.80;;;;;;;15.18;49.13;100203.48;105658;1267;99483;-82
2024/04/26 11:59:10;;;;;;;4.10;2.70;;;;;;;15.22;48.05;100204.94;105591;1267;99358;-82
2024/04/26 12:01:55;;;;;;;3.10;2.60;;;;;;;15.20;47.48;100204.62;105772;1267;99328;-81
2024/04/26 12:04:45;;;;;;;4.60;3.00;;;;;;;15.14;47.04;100204.92;105833;1267;99826;-80
2024/04/26 12:07:30;;;;;;;5.70;2.70;;;;;;;15.04;46.83;100205.73;105781;1267;102917;-81
2024/04/26 12:10:17;;;;;;;4.00;2.90;;;;;;;14.97;47.30;100208.42;105959;1270;99361;-80
2024/04/26 12:13:02;;;;;;;4.30;2.70;;;;;;;14.94;47.33;100204.88;105733;1267;99269;-84
2024/04/26 12:15:51;;;;;;;4.80;2.90;;;;;;;14.89;46.90;100209.96;105631;1270;99361;-81
2024/04/26 12:18:38;;;;;;;3.80;2.90;;;;;;;14.86;46.90;100211.59;105800;1266;100041;-82
2024/04/26 12:21:26;;;;;;;4.70;2.70;;;;;;;14.89;47.51;100211.30;105715;1267;104078;-80
2024/04/26 12:24:12;;;;;;;4.60;2.90;;;;;;;14.91;47.08;100215.41;105769;1267;100427;-83
2024/04/26 12:27:02;;;;;;;4.70;2.90;;;;;;;14.89;46.85;100215.73;105614;1267;99326;-81
2024/04/26 12:29:48;;;;;;;4.20;3.00;;;;;;;14.88;46.89;100215.50;105698;1267;99333;-82
2024/04/26 12:32:34;;;;;;;4.60;3.10;;;;;;;14.91;46.72;100217.66;105670;1267;99820;-82
2024/04/26 12:35:19;;;;;;;4.20;2.60;;;;;;;15.07;47.17;100211.89;105654;1270;102741;-81
2024/04/26 12:38:05;;;;;;;4.40;2.80;;;;;;;15.27;46.86;100215.17;105657;1267;100381;-81